createdAt,value
2023-01-19T00:00:30.202Z,100.00
2023-01-19T00:02:56.788Z,100.00
2023-01-19T00:05:23.262Z,100.00
2023-01-19T00:07:49.716Z,100.00
2023-01-19T00:10:16.656Z,100.00
2023-01-19T00:12:43.103Z,100.00
2023-01-19T00:15:10.138Z,100.00
2023-01-19T00:17:36.597Z,100.00
2023-01-19T00:20:03.960Z,100.00
2023-01-19T00:22:30.493Z,100.00
2023-01-19T00:24:57.043Z,100.00
2023-01-19T00:27:23.476Z,100.00
2023-01-19T00:29:49.951Z,100.00
2023-01-19T00:32:17.847Z,100.00
2023-01-19T00:34:49.524Z,100.00
2023-01-19T00:37:17.131Z,100.00
2023-01-19T00:39:43.809Z,100.00
2023-01-19T00:42:32.438Z,100.00
2023-01-19T00:44:59.001Z,100.00
2023-01-19T00:47:25.750Z,100.00
2023-01-19T00:49:52.272Z,100.00
2023-01-19T00:52:18.773Z,100.00
2023-01-19T00:54:45.237Z,100.00
2023-01-19T00:57:12.196Z,100.00
2023-01-19T00:59:38.730Z,100.00
2023-01-19T01:02:05.390Z,100.00
2023-01-19T01:04:32.148Z,100.00
2023-01-19T01:06:58.613Z,100.00
2023-01-19T01:09:25.062Z,100.00
2023-01-19T01:11:51.478Z,100.00
2023-01-19T01:14:18.133Z,100.00
2023-01-19T01:16:44.913Z,100.00
2023-01-19T01:19:11.402Z,100.00
2023-01-19T01:21:37.859Z,100.00
2023-01-19T01:24:04.952Z,100.00
2023-01-19T01:26:31.446Z,100.00
2023-01-19T01:28:57.992Z,100.00
2023-01-19T01:31:24.764Z,100.00
2023-01-19T01:33:51.263Z,100.00
2023-01-19T01:36:18.991Z,100.00
2023-01-19T01:38:45.475Z,100.00
2023-01-19T01:41:12.353Z,100.00
2023-01-19T01:43:58.332Z,100.00
2023-01-19T01:46:26.760Z,100.00
2023-01-19T01:49:05.364Z,100.00
2023-01-19T01:51:39.177Z,100.00
2023-01-19T01:54:29.140Z,100.00
2023-01-19T01:57:00.243Z,100.00
2023-01-19T01:59:34.681Z,100.00
2023-01-19T02:02:24.753Z,100.00
2023-01-19T02:04:56.324Z,100.00
2023-01-19T02:07:46.396Z,100.00
2023-01-19T02:10:31.646Z,100.00
2023-01-19T02:13:17.004Z,100.00
2023-01-19T02:15:44.093Z,100.00
2023-01-19T02:18:10.829Z,100.00
2023-01-19T02:20:40.903Z,100.00
2023-01-19T02:23:18.349Z,100.00
2023-01-19T02:25:45.217Z,100.00
2023-01-19T02:28:11.984Z,100.00
2023-01-19T02:30:41.026Z,100.00
2023-01-19T02:33:07.533Z,100.00
2023-01-19T02:35:37.917Z,100.00
2023-01-19T02:38:06.376Z,100.00
2023-01-19T02:40:33.128Z,100.00
2023-01-19T02:43:01.374Z,100.00
2023-01-19T02:45:28.525Z,100.00
2023-01-19T02:47:54.983Z,100.00
2023-01-19T02:50:56.767Z,100.00
2023-01-19T02:53:49.879Z,100.00
2023-01-19T02:56:35.953Z,100.00
2023-01-19T02:59:15.542Z,100.00
2023-01-19T03:01:47.913Z,100.00
2023-01-19T03:04:40.653Z,100.00
2023-01-19T03:07:17.157Z,100.00
2023-01-19T03:09:59.025Z,100.00
2023-01-19T03:12:39.659Z,100.00
2023-01-19T03:15:17.273Z,100.00
2023-01-19T03:17:48.394Z,100.00
2023-01-19T03:20:18.812Z,100.00
2023-01-19T03:22:46.839Z,100.00
2023-01-19T03:25:15.093Z,100.00
2023-01-19T03:27:44.688Z,100.00
2023-01-19T03:30:15.881Z,100.00
2023-01-19T03:32:51.746Z,100.00
2023-01-19T03:35:21.854Z,100.00
2023-01-19T03:37:52.927Z,100.00
2023-01-19T03:40:19.534Z,100.00
2023-01-19T03:42:47.598Z,100.00
2023-01-19T03:45:14.833Z,100.00
2023-01-19T03:47:41.856Z,100.00
2023-01-19T03:50:16.845Z,100.00
2023-01-19T03:52:43.929Z,100.00
2023-01-19T03:55:10.509Z,100.00
2023-01-19T03:57:37.430Z,100.00
2023-01-19T04:00:04.716Z,100.00
2023-01-19T04:02:38.416Z,100.00
2023-01-19T04:05:05.239Z,100.00
2023-01-19T04:07:31.987Z,100.00
2023-01-19T04:09:58.414Z,100.00
2023-01-19T04:12:24.869Z,100.00
2023-01-19T04:14:51.341Z,100.00
2023-01-19T04:17:17.917Z,100.00
2023-01-19T04:19:45.133Z,100.00
2023-01-19T04:22:11.592Z,100.00
2023-01-19T04:24:38.093Z,100.00
2023-01-19T04:27:04.647Z,100.00
2023-01-19T04:29:31.073Z,100.00
2023-01-19T04:31:57.683Z,100.00
2023-01-19T04:34:24.124Z,100.00
2023-01-19T04:36:51.449Z,100.00
2023-01-19T04:39:18.134Z,100.00
2023-01-19T04:41:44.586Z,100.00
2023-01-19T04:44:11.216Z,100.00
2023-01-19T04:46:37.697Z,100.00
2023-01-19T04:49:04.180Z,100.00
2023-01-19T04:51:30.723Z,100.00
2023-01-19T04:53:57.764Z,100.00
2023-01-19T04:56:24.280Z,100.00
2023-01-19T04:58:50.752Z,100.00
2023-01-19T05:01:17.405Z,100.00
2023-01-19T05:03:43.885Z,100.00
2023-01-19T05:06:10.378Z,100.00
2023-01-19T05:08:36.830Z,100.00
2023-01-19T05:11:03.384Z,100.00
2023-01-19T05:13:29.897Z,100.00
2023-01-19T05:15:56.367Z,100.00
2023-01-19T05:18:22.849Z,100.00
2023-01-19T05:20:49.385Z,100.00
2023-01-19T05:23:15.785Z,100.00
2023-01-19T05:25:42.904Z,100.00
2023-01-19T05:28:09.485Z,100.00
2023-01-19T05:30:36.209Z,100.00
2023-01-19T05:33:03.214Z,100.00
2023-01-19T05:35:35.692Z,100.00
2023-01-19T05:38:02.901Z,100.00
2023-01-19T05:40:29.324Z,100.00
2023-01-19T05:42:59.922Z,100.00
2023-01-19T05:45:29.737Z,100.00
2023-01-19T05:47:56.476Z,100.00
2023-01-19T05:50:23.170Z,100.00
2023-01-19T05:52:49.904Z,100.00
2023-01-19T05:55:16.524Z,100.00
2023-01-19T05:57:43.335Z,100.00
2023-01-19T06:00:11.881Z,99.99
2023-01-19T06:02:39.577Z,100.00
2023-01-19T06:05:06.342Z,100.00
2023-01-19T06:07:32.856Z,99.98
2023-01-19T06:09:59.320Z,99.36
2023-01-19T06:12:25.722Z,98.86
2023-01-19T06:14:52.141Z,98.45
2023-01-19T06:17:19.105Z,98.82
2023-01-19T06:19:45.546Z,98.38
2023-01-19T06:22:12.200Z,98.84
2023-01-19T06:24:38.669Z,100.00
2023-01-19T06:27:06.476Z,100.00
2023-01-19T06:29:33.011Z,100.00
2023-01-19T06:31:59.442Z,100.00
2023-01-19T06:34:28.945Z,100.00
2023-01-19T06:36:58.949Z,100.00
2023-01-19T06:39:25.465Z,100.00
2023-01-19T06:41:51.876Z,100.00
2023-01-19T06:44:18.327Z,100.00
2023-01-19T06:46:44.821Z,100.00
2023-01-19T06:49:11.264Z,100.00
2023-01-19T06:51:37.739Z,100.00
2023-01-19T06:54:04.312Z,100.00
2023-01-19T06:56:31.050Z,100.00
2023-01-19T06:58:57.811Z,100.00
2023-01-19T07:01:24.684Z,100.00
2023-01-19T07:03:51.752Z,100.00
2023-01-19T07:06:18.377Z,100.00
2023-01-19T07:08:44.853Z,100.00
2023-01-19T07:11:26.101Z,100.00
2023-01-19T07:13:58.725Z,100.00
2023-01-19T07:16:25.514Z,100.00
2023-01-19T07:18:52.046Z,100.00
2023-01-19T07:21:19.059Z,100.00
2023-01-19T07:23:48.904Z,100.00
2023-01-19T07:26:18.478Z,100.00
2023-01-19T07:28:46.818Z,100.00
2023-01-19T07:31:15.307Z,100.00
2023-01-19T07:33:41.934Z,99.23
2023-01-19T07:36:09.171Z,98.70
2023-01-19T07:38:35.824Z,98.68
2023-01-19T07:41:03.694Z,98.78
2023-01-19T07:43:30.385Z,100.00
2023-01-19T07:46:01.906Z,100.00
2023-01-19T07:48:28.666Z,100.00
2023-01-19T07:51:05.196Z,100.00
2023-01-19T07:53:32.349Z,100.00
2023-01-19T07:55:58.871Z,100.00
2023-01-19T07:58:26.327Z,100.00
2023-01-19T08:00:53.426Z,100.00
2023-01-19T08:03:20.310Z,100.00
2023-01-19T08:05:52.312Z,100.00
2023-01-19T08:08:19.369Z,100.00
2023-01-19T08:10:49.779Z,100.00
2023-01-19T08:13:16.210Z,100.00
2023-01-19T08:15:42.742Z,100.00
2023-01-19T08:18:11.446Z,100.00
2023-01-19T08:20:38.295Z,100.00
2023-01-19T08:23:05.495Z,100.00
2023-01-19T08:25:35.002Z,100.00
2023-01-19T08:28:02.985Z,99.25
2023-01-19T08:30:30.391Z,97.56
2023-01-19T08:33:03.942Z,96.91
2023-01-19T08:35:32.048Z,96.09
2023-01-19T08:38:01.263Z,96.26
2023-01-19T08:40:29.544Z,96.41
2023-01-19T08:43:01.246Z,95.97
2023-01-19T08:45:29.491Z,96.53
2023-01-19T08:47:58.879Z,96.75
2023-01-19T08:50:26.630Z,96.40
2023-01-19T08:52:55.889Z,95.74
2023-01-19T08:55:22.395Z,95.35
2023-01-19T08:57:53.089Z,94.36
2023-01-19T09:00:20.931Z,93.45
2023-01-19T09:02:48.146Z,93.10
2023-01-19T09:05:15.192Z,93.68
2023-01-19T09:07:43.735Z,94.09
2023-01-19T09:10:10.696Z,93.86
2023-01-19T09:12:37.224Z,94.00
2023-01-19T09:15:04.981Z,94.05
2023-01-19T09:17:31.503Z,94.44
2023-01-19T09:19:58.556Z,94.92
2023-01-19T09:22:25.335Z,94.42
2023-01-19T09:24:51.784Z,94.99
2023-01-19T09:27:18.689Z,94.06
2023-01-19T09:29:52.263Z,94.64
2023-01-19T09:32:20.854Z,94.14
2023-01-19T09:34:47.824Z,94.00
2023-01-19T09:37:16.079Z,92.95
2023-01-19T09:39:42.592Z,91.53
2023-01-19T09:42:51.905Z,91.84
2023-01-19T09:45:27.167Z,91.32
2023-01-19T09:47:55.550Z,92.51
2023-01-19T09:50:31.356Z,92.90
2023-01-19T09:53:13.658Z,92.38
2023-01-19T09:55:42.609Z,93.13
2023-01-19T09:58:16.283Z,93.61
2023-01-19T10:00:50.807Z,92.80
2023-01-19T10:03:17.768Z,92.46
2023-01-19T10:05:55.514Z,92.07
2023-01-19T10:08:29.212Z,91.50
2023-01-19T10:10:57.801Z,91.64
2023-01-19T10:13:45.007Z,91.27
2023-01-19T10:17:26.937Z,92.22
2023-01-19T10:19:57.445Z,91.53
2023-01-19T10:22:26.890Z,91.87
2023-01-19T10:24:57.379Z,92.36
2023-01-19T10:27:28.580Z,92.73
2023-01-19T10:29:55.241Z,92.85
2023-01-19T10:32:36.033Z,92.48
2023-01-19T10:35:26.364Z,92.22
2023-01-19T10:38:00.075Z,92.03
2023-01-19T10:40:36.267Z,92.13
2023-01-19T10:43:36.126Z,92.20
2023-01-19T10:46:06.527Z,91.57
2023-01-19T10:48:40.020Z,91.93
2023-01-19T10:51:08.305Z,91.72
2023-01-19T10:53:35.240Z,91.28
2023-01-19T10:56:22.304Z,91.65
2023-01-19T10:58:48.770Z,91.64
2023-01-19T11:01:24.622Z,90.62
2023-01-19T11:03:53.430Z,90.35
2023-01-19T11:06:20.020Z,90.85
2023-01-19T11:08:48.633Z,88.74
2023-01-19T11:11:15.049Z,87.81
2023-01-19T11:13:42.626Z,87.99
2023-01-19T11:16:17.304Z,87.43
2023-01-19T11:18:45.510Z,86.66
2023-01-19T11:21:15.425Z,87.48
2023-01-19T11:23:46.209Z,86.88
2023-01-19T11:26:25.016Z,88.17
2023-01-19T11:28:54.651Z,86.78
2023-01-19T11:31:31.136Z,87.24
2023-01-19T11:34:03.040Z,84.59
2023-01-19T11:36:32.082Z,84.96
2023-01-19T11:39:20.508Z,84.34
2023-01-19T11:41:50.729Z,85.00
2023-01-19T11:44:19.960Z,85.13
2023-01-19T11:46:50.175Z,85.03
2023-01-19T11:49:25.718Z,85.08
2023-01-19T11:52:12.837Z,86.39
2023-01-19T11:54:49.751Z,87.17
2023-01-19T11:57:20.763Z,86.01
2023-01-19T11:59:49.739Z,85.76
2023-01-19T12:02:28.297Z,86.39
2023-01-19T12:04:59.874Z,86.03
2023-01-19T12:07:32.394Z,87.50
2023-01-19T12:10:14.783Z,86.41
2023-01-19T12:12:42.111Z,86.54
2023-01-19T12:15:24.811Z,86.85
2023-01-19T12:17:57.729Z,88.05
2023-01-19T12:20:30.901Z,87.06
2023-01-19T12:23:08.900Z,86.78
2023-01-19T12:26:06.308Z,88.62
2023-01-19T12:28:36.993Z,88.06
2023-01-19T12:31:04.043Z,89.98
2023-01-19T12:33:40.237Z,92.09
2023-01-19T12:36:11.385Z,92.64
2023-01-19T12:38:44.938Z,94.33
2023-01-19T12:41:23.844Z,94.46
2023-01-19T12:44:12.057Z,94.86
2023-01-19T12:46:54.520Z,95.20
2023-01-19T12:49:26.327Z,96.22
2023-01-19T12:51:54.624Z,95.72
2023-01-19T12:54:31.672Z,95.68
2023-01-19T12:57:17.373Z,95.83
2023-01-19T12:59:44.313Z,96.09
2023-01-19T13:02:20.087Z,95.62
2023-01-19T13:05:20.048Z,94.71
2023-01-19T13:08:01.783Z,93.31
2023-01-19T13:10:59.217Z,93.46
2023-01-19T13:13:43.799Z,92.59
2023-01-19T13:16:19.752Z,93.23
2023-01-19T13:18:47.848Z,92.70
2023-01-19T13:21:29.910Z,90.33
2023-01-19T13:23:59.026Z,90.22
2023-01-19T13:26:28.737Z,90.49
2023-01-19T13:28:58.420Z,91.61
2023-01-19T13:31:25.859Z,91.62
2023-01-19T13:33:55.443Z,91.09
2023-01-19T13:36:29.588Z,89.42
2023-01-19T13:38:59.478Z,89.32
2023-01-19T13:41:29.460Z,90.22
2023-01-19T13:44:02.896Z,90.90
2023-01-19T13:46:30.967Z,91.28
2023-01-19T13:49:01.067Z,91.35
2023-01-19T13:51:27.521Z,91.98
2023-01-19T13:53:55.791Z,89.10
2023-01-19T13:56:24.499Z,90.62
2023-01-19T13:59:02.191Z,91.51
2023-01-19T14:01:30.272Z,92.61
2023-01-19T14:03:57.326Z,93.04
2023-01-19T14:06:39.469Z,92.56
2023-01-19T14:09:16.478Z,92.13
2023-01-19T14:11:44.685Z,93.58
2023-01-19T14:14:27.912Z,94.85
2023-01-19T14:16:54.771Z,94.72
2023-01-19T14:19:21.740Z,94.53
2023-01-19T14:21:58.989Z,94.27
2023-01-19T14:24:29.605Z,94.02
2023-01-19T14:27:18.139Z,93.10
2023-01-19T14:29:47.311Z,92.98
2023-01-19T14:32:20.698Z,93.84
2023-01-19T14:35:04.411Z,94.91
2023-01-19T14:37:37.051Z,93.89
2023-01-19T14:40:13.148Z,93.39
2023-01-19T14:42:42.469Z,93.53
2023-01-19T14:45:21.841Z,94.89
2023-01-19T14:47:57.593Z,94.67
2023-01-19T14:50:28.093Z,93.94
2023-01-19T14:52:58.905Z,94.09
2023-01-19T14:55:37.917Z,93.47
2023-01-19T14:58:13.190Z,94.94
2023-01-19T15:00:40.748Z,94.02
2023-01-19T15:03:09.786Z,94.43
2023-01-19T15:05:42.676Z,94.10
2023-01-19T15:08:19.358Z,94.95
2023-01-19T15:10:46.343Z,93.86
2023-01-19T15:13:19.313Z,94.44
2023-01-19T15:15:46.278Z,92.86
2023-01-19T15:18:19.404Z,91.02
2023-01-19T15:20:46.069Z,89.94
2023-01-19T15:23:12.874Z,92.01
2023-01-19T15:25:39.659Z,91.29
2023-01-19T15:28:14.543Z,90.96
2023-01-19T15:30:41.137Z,90.91
2023-01-19T15:33:32.309Z,93.03
2023-01-19T15:35:58.937Z,92.13
2023-01-19T15:38:26.527Z,92.55
2023-01-19T15:40:53.140Z,91.54
2023-01-19T15:43:20.974Z,91.27
2023-01-19T15:45:57.348Z,92.35
2023-01-19T15:48:23.950Z,92.17
2023-01-19T15:50:50.453Z,91.22
2023-01-19T15:53:19.041Z,92.00
2023-01-19T15:55:49.552Z,92.42
2023-01-19T15:58:16.537Z,93.81
2023-01-19T16:00:43.165Z,94.38
2023-01-19T16:03:10.636Z,94.79
2023-01-19T16:05:43.053Z,92.63
2023-01-19T16:08:13.364Z,93.41
2023-01-19T16:10:41.631Z,92.76
2023-01-19T16:13:10.182Z,93.19
2023-01-19T16:15:37.986Z,92.84
2023-01-19T16:18:05.404Z,93.16
2023-01-19T16:20:32.104Z,93.43
2023-01-19T16:23:09.596Z,92.34
2023-01-19T16:25:40.605Z,92.65
2023-01-19T16:28:08.126Z,94.34
2023-01-19T16:30:34.580Z,95.40
2023-01-19T16:33:01.059Z,97.21
2023-01-19T16:35:27.526Z,99.76
2023-01-19T16:37:53.996Z,99.56
2023-01-19T16:40:20.623Z,99.82
2023-01-19T16:42:47.352Z,98.80
2023-01-19T16:45:13.849Z,98.16
2023-01-19T16:47:40.468Z,96.91
2023-01-19T16:50:10.549Z,94.72
2023-01-19T16:52:37.259Z,95.47
2023-01-19T16:55:08.803Z,96.14
2023-01-19T16:57:36.919Z,96.45
2023-01-19T17:00:05.515Z,97.37
2023-01-19T17:02:32.029Z,98.04
2023-01-19T17:05:00.225Z,98.44
2023-01-19T17:07:28.001Z,100.00
2023-01-19T17:09:54.419Z,100.00
2023-01-19T17:12:20.922Z,100.00
2023-01-19T17:14:47.576Z,100.00
2023-01-19T17:17:14.231Z,100.00
2023-01-19T17:19:40.705Z,100.00
2023-01-19T17:22:07.151Z,100.00
2023-01-19T17:24:33.608Z,100.00
2023-01-19T17:27:00.095Z,100.00
2023-01-19T17:29:26.629Z,100.00
2023-01-19T17:31:53.373Z,100.00
2023-01-19T17:34:19.854Z,100.00
2023-01-19T17:36:46.388Z,100.00
2023-01-19T17:39:14.704Z,100.00
2023-01-19T17:41:41.431Z,100.00
2023-01-19T17:44:09.210Z,100.00
2023-01-19T17:46:37.741Z,100.00
2023-01-19T17:49:06.861Z,100.00
2023-01-19T17:51:33.716Z,100.00
2023-01-19T17:54:00.376Z,100.00
2023-01-19T17:56:30.163Z,100.00
2023-01-19T17:58:58.078Z,100.00
2023-01-19T18:01:37.028Z,100.00
2023-01-19T18:04:03.679Z,100.00
2023-01-19T18:06:30.331Z,100.00
2023-01-19T18:08:58.327Z,100.00
2023-01-19T18:11:26.196Z,100.00
2023-01-19T18:13:52.953Z,100.00
2023-01-19T18:16:24.516Z,100.00
2023-01-19T18:18:53.572Z,100.00
2023-01-19T18:21:21.735Z,100.00
2023-01-19T18:23:49.594Z,100.00
2023-01-19T18:26:21.959Z,100.00
2023-01-19T18:28:49.377Z,100.00
2023-01-19T18:31:18.290Z,100.00
2023-01-19T18:33:45.368Z,100.00
2023-01-19T18:36:11.802Z,100.00
2023-01-19T18:38:38.938Z,100.00
2023-01-19T18:41:12.301Z,100.00
2023-01-19T18:43:39.626Z,100.00
2023-01-19T18:46:06.890Z,100.00
2023-01-19T18:48:33.781Z,100.00
2023-01-19T18:51:03.404Z,100.00
2023-01-19T18:53:31.601Z,100.00
2023-01-19T18:56:02.013Z,100.00
2023-01-19T18:58:29.719Z,100.00
2023-01-19T19:00:56.705Z,100.00
2023-01-19T19:03:23.644Z,100.00
2023-01-19T19:05:50.473Z,100.00
2023-01-19T19:08:17.121Z,100.00
2023-01-19T19:10:43.841Z,100.00
2023-01-19T19:13:14.970Z,100.00
2023-01-19T19:15:41.496Z,100.00
2023-01-19T19:18:13.037Z,100.00
2023-01-19T19:20:40.054Z,100.00
2023-01-19T19:23:06.554Z,100.00
2023-01-19T19:25:33.600Z,100.00
2023-01-19T19:28:00.100Z,100.00
2023-01-19T19:30:26.753Z,100.00
2023-01-19T19:32:55.858Z,100.00
2023-01-19T19:35:25.803Z,100.00
2023-01-19T19:37:57.287Z,100.00
2023-01-19T19:40:24.800Z,100.00
2023-01-19T19:42:51.368Z,100.00
2023-01-19T19:45:17.878Z,100.00
2023-01-19T19:47:44.590Z,100.00
2023-01-19T19:50:11.963Z,100.00
2023-01-19T19:52:42.425Z,100.00
2023-01-19T19:55:10.359Z,100.00
2023-01-19T19:57:36.961Z,100.00
2023-01-19T20:00:05.109Z,100.00
2023-01-19T20:02:36.739Z,100.00
2023-01-19T20:05:03.880Z,100.00
2023-01-19T20:07:30.452Z,100.00
2023-01-19T20:09:57.010Z,100.00
2023-01-19T20:12:23.463Z,100.00
2023-01-19T20:14:49.986Z,100.00
2023-01-19T20:17:16.655Z,100.00
2023-01-19T20:19:43.713Z,100.00
2023-01-19T20:22:10.145Z,100.00
2023-01-19T20:24:36.619Z,100.00
2023-01-19T20:27:03.114Z,100.00
2023-01-19T20:29:30.575Z,100.00
2023-01-19T20:31:57.122Z,100.00
2023-01-19T20:34:28.157Z,100.00
2023-01-19T20:36:55.217Z,100.00
2023-01-19T20:39:23.388Z,100.00
2023-01-19T20:41:51.337Z,100.00
2023-01-19T20:44:23.106Z,100.00
2023-01-19T20:46:49.688Z,100.00
2023-01-19T20:49:16.563Z,100.00
2023-01-19T20:51:43.383Z,100.00
2023-01-19T20:54:15.641Z,100.00
2023-01-19T20:56:42.287Z,100.00
2023-01-19T20:59:12.707Z,100.00
2023-01-19T21:01:40.059Z,100.00
2023-01-19T21:04:07.001Z,100.00
2023-01-19T21:06:34.446Z,100.00
2023-01-19T21:09:01.174Z,100.00
2023-01-19T21:11:27.793Z,100.00
2023-01-19T21:13:56.824Z,100.00
2023-01-19T21:16:28.398Z,100.00
2023-01-19T21:18:55.080Z,100.00
2023-01-19T21:21:30.411Z,100.00
2023-01-19T21:23:59.718Z,100.00
2023-01-19T21:26:26.442Z,100.00
2023-01-19T21:28:52.873Z,100.00
2023-01-19T21:31:21.310Z,100.00
2023-01-19T21:33:49.083Z,100.00
2023-01-19T21:36:15.720Z,100.00
2023-01-19T21:38:42.204Z,100.00
2023-01-19T21:41:12.369Z,100.00
2023-01-19T21:43:41.594Z,100.00
2023-01-19T21:46:19.897Z,100.00
2023-01-19T21:48:47.235Z,100.00
2023-01-19T21:51:14.602Z,100.00
2023-01-19T21:53:41.751Z,100.00
2023-01-19T21:56:09.846Z,100.00
2023-01-19T21:58:36.864Z,100.00
2023-01-19T22:01:07.149Z,100.00
2023-01-19T22:03:33.705Z,100.00
2023-01-19T22:06:05.318Z,100.00
2023-01-19T22:08:32.202Z,100.00
2023-01-19T22:11:09.769Z,100.00
2023-01-19T22:13:38.518Z,100.00
2023-01-19T22:16:10.834Z,100.00
2023-01-19T22:18:41.630Z,100.00
2023-01-19T22:21:20.307Z,100.00
2023-01-19T22:23:55.681Z,100.00
2023-01-19T22:26:22.460Z,100.00
2023-01-19T22:28:52.912Z,100.00
2023-01-19T22:31:19.456Z,100.00
2023-01-19T22:33:46.085Z,100.00
2023-01-19T22:36:27.474Z,100.00
2023-01-19T22:38:59.358Z,100.00
2023-01-19T22:41:28.615Z,100.00
2023-01-19T22:43:58.688Z,100.00
2023-01-19T22:46:27.901Z,100.00
2023-01-19T22:48:55.057Z,100.00
2023-01-19T22:51:23.935Z,100.00
2023-01-19T22:53:51.325Z,100.00
2023-01-19T22:56:26.419Z,100.00
2023-01-19T22:58:53.690Z,100.00
2023-01-19T23:01:23.407Z,100.00
2023-01-19T23:03:50.318Z,100.00
2023-01-19T23:06:20.178Z,100.00
2023-01-19T23:08:47.305Z,100.00
2023-01-19T23:11:22.567Z,100.00
2023-01-19T23:13:49.504Z,100.00
2023-01-19T23:16:17.087Z,100.00
2023-01-19T23:18:44.031Z,100.00
2023-01-19T23:21:13.268Z,100.00
2023-01-19T23:23:40.236Z,100.00
2023-01-19T23:26:08.226Z,100.00
2023-01-19T23:28:36.571Z,100.00
2023-01-19T23:31:17.697Z,100.00
2023-01-19T23:33:44.872Z,100.00
2023-01-19T23:36:12.518Z,100.00
2023-01-19T23:38:39.789Z,100.00
2023-01-19T23:41:06.677Z,100.00
2023-01-19T23:43:33.572Z,100.00
2023-01-19T23:46:04.621Z,100.00
2023-01-19T23:48:31.231Z,100.00
2023-01-19T23:50:57.724Z,100.00
2023-01-19T23:53:24.307Z,100.00
2023-01-19T23:55:50.740Z,100.00
2023-01-19T23:58:17.251Z,100.00
